Check out our new BloomSky Weather System.

Active alerts


No alerts


Thunder radar  blitzortung!


Rain radar more information rain snow radar


Visit our other weather sites:

Template documentation
and downloads

And another site



Weather Underground History page Text

Daily Summary for April 6, 2017 Units:  English    Metric   Both
« Previous Day
Next Day »
Daily Weekly Monthly Yearly Custom
  High: Low: Average:
Temperature: 78.6 °F 47.5 °F 63.2 °F
Dew Point: 50.7 °F 35.1 °F 43.2 °F
Humidity: 91 % 22 % 55 %
Wind Speed: 10.0 mph 0.0 mph 0.9 mph
Wind Gust: 10.0 mph - -
Wind:- - WSW
Pressure: 30.27 in 30.12 in -
Precipitation: 0.00 in    
Historical Graphs
 
 
Tabular Data for April 6, 2017
Time Temperature Dew Point Pressure Wind Wind Speed Wind Gust Humidity Rainfall Rate (Hourly)
00:02 54.3 °F 45.5 °F 30.12 in Calm     72 % 0.00 in
00:07 54.3 °F 45.5 °F 30.12 in Calm     72 % 0.00 in
00:12 54.1 °F 45.7 °F 30.12 in Calm     73 % 0.00 in
00:17 54.0 °F 45.9 °F 30.12 in Calm     74 % 0.00 in
00:22 54.0 °F 46.2 °F 30.12 in Calm     75 % 0.00 in
00:27 53.8 °F 46.4 °F 30.12 in Calm     76 % 0.00 in
00:32 53.8 °F 46.8 °F 30.12 in Calm   1.0 mph 77 % 0.00 in
00:37 54.0 °F 46.9 °F 30.12 in Calm   1.0 mph 77 % 0.00 in
00:42 54.0 °F 46.9 °F 30.12 in Calm   1.0 mph 77 % 0.00 in
00:47 53.8 °F 46.8 °F 30.13 in Calm   1.0 mph 77 % 0.00 in
00:52 53.6 °F 46.6 °F 30.12 in Calm   1.0 mph 77 % 0.00 in
00:57 53.4 °F 46.4 °F 30.13 in Calm   1.0 mph 77 % 0.00 in
01:02 53.2 °F 46.6 °F 30.14 in Calm   1.0 mph 78 % 0.00 in
01:07 53.2 °F 46.6 °F 30.13 in Calm   1.0 mph 78 % 0.00 in
01:12 53.1 °F 46.4 °F 30.14 in Calm   1.0 mph 78 % 0.00 in
01:17 52.9 °F 45.9 °F 30.14 in Calm   1.0 mph 77 % 0.00 in
01:22 52.3 °F 45.7 °F 30.14 in Calm     78 % 0.00 in
01:27 52.2 °F 45.9 °F 30.14 in Calm     79 % 0.00 in
01:32 52.2 °F 46.2 °F 30.14 in Calm     80 % 0.00 in
01:37 52.2 °F 46.6 °F 30.14 in Calm     81 % 0.00 in
01:42 52.2 °F 46.6 °F 30.14 in Calm     81 % 0.00 in
01:47 52.2 °F 46.8 °F 30.14 in Calm     82 % 0.00 in
01:52 52.2 °F 46.6 °F 30.14 in Calm     81 % 0.00 in
01:57 52.0 °F 46.4 °F 30.14 in Calm     81 % 0.00 in
02:02 51.6 °F 46.2 °F 30.14 in Calm     82 % 0.00 in
02:07 51.6 °F 46.6 °F 30.13 in Calm   1.0 mph 83 % 0.00 in
02:12 51.6 °F 46.2 °F 30.13 in Calm   1.0 mph 82 % 0.00 in
02:17 51.6 °F 46.2 °F 30.13 in Calm   1.0 mph 82 % 0.00 in
02:22 51.4 °F 46.4 °F 30.13 in Calm   1.0 mph 83 % 0.00 in
02:27 51.3 °F 46.2 °F 30.13 in Calm     83 % 0.00 in
02:32 51.1 °F 46.0 °F 30.14 in Calm     83 % 0.00 in
02:37 50.9 °F 45.9 °F 30.14 in Calm     83 % 0.00 in
02:42 50.7 °F 46.0 °F 30.13 in Calm   1.0 mph 84 % 0.00 in
02:47 51.1 °F 46.4 °F 30.13 in Calm   1.0 mph 84 % 0.00 in
02:52 50.7 °F 45.7 °F 30.14 in Calm   1.0 mph 83 % 0.00 in
02:57 50.4 °F 45.3 °F 30.14 in Calm   1.0 mph 83 % 0.00 in
03:02 50.2 °F 45.9 °F 30.14 in Calm     85 % 0.00 in
03:07 50.2 °F 45.9 °F 30.14 in Calm     85 % 0.00 in
03:12 50.0 °F 46.0 °F 30.14 in Calm     86 % 0.00 in
03:17 50.2 °F 46.2 °F 30.14 in Calm     86 % 0.00 in
03:22 49.8 °F 45.5 °F 30.14 in Calm     85 % 0.00 in
03:27 49.6 °F 45.7 °F 30.14 in Calm     86 % 0.00 in
03:32 49.5 °F 45.5 °F 30.14 in Calm     86 % 0.00 in
03:37 49.3 °F 45.5 °F 30.14 in Calm     87 % 0.00 in
03:42 49.3 °F 45.5 °F 30.14 in Calm     87 % 0.00 in
03:47 49.3 °F 45.5 °F 30.14 in Calm   1.0 mph 87 % 0.00 in
03:52 49.3 °F 45.5 °F 30.14 in Calm   1.0 mph 87 % 0.00 in
03:57 49.3 °F 45.5 °F 30.14 in Calm   1.0 mph 87 % 0.00 in
04:02 49.3 °F 45.5 °F 30.14 in Calm   1.0 mph 87 % 0.00 in
04:07 49.3 °F 45.5 °F 30.14 in Calm   1.0 mph 87 % 0.00 in
04:12 49.1 °F 45.3 °F 30.14 in Calm   1.0 mph 87 % 0.00 in
04:17 48.7 °F 45.0 °F 30.14 in Calm     87 % 0.00 in
04:19 48.7 °F 45.0 °F 30.14 in Calm     87 % 0.00 in
04:24 48.7 °F 45.0 °F 30.14 in Calm     87 % 0.00 in
04:29 48.6 °F 45.1 °F 30.14 in Calm     88 % 0.00 in
04:34 48.6 °F 45.1 °F 30.14 in Calm     88 % 0.00 in
04:39 48.4 °F 45.0 °F 30.15 in Calm     88 % 0.00 in
04:44 48.4 °F 45.3 °F 30.15 in Calm     89 % 0.00 in
04:49 48.6 °F 45.5 °F 30.15 in Calm     89 % 0.00 in
04:54 48.9 °F 45.9 °F 30.15 in Calm   1.0 mph 89 % 0.00 in
04:59 48.7 °F 45.7 °F 30.15 in Calm   1.0 mph 89 % 0.00 in
05:04 48.6 °F 45.1 °F 30.15 in Calm   1.0 mph 88 % 0.00 in
05:09 48.2 °F 45.1 °F 30.15 in Calm     89 % 0.00 in
05:14 47.8 °F 44.8 °F 30.15 in Calm     89 % 0.00 in
05:19 47.7 °F 45.0 °F 30.15 in Calm     90 % 0.00 in
05:20 47.7 °F 45.0 °F 30.15 in Calm     90 % 0.00 in
05:25 47.7 °F 45.0 °F 30.15 in Calm     90 % 0.00 in
05:30 47.8 °F 45.0 °F 30.15 in Calm     90 % 0.00 in
05:35 47.8 °F 45.3 °F 30.15 in Calm     91 % 0.00 in
05:40 47.8 °F 45.0 °F 30.15 in Calm     90 % 0.00 in
05:45 47.8 °F 45.0 °F 30.15 in Calm     90 % 0.00 in
05:50 47.5 °F 44.8 °F 30.15 in Calm     90 % 0.00 in
05:55 47.7 °F 45.1 °F 30.16 in Calm     91 % 0.00 in
06:00 47.7 °F 45.0 °F 30.16 in Calm     90 % 0.00 in
06:05 47.7 °F 45.0 °F 30.16 in Calm     90 % 0.00 in
06:10 47.5 °F 44.8 °F 30.16 in Calm     90 % 0.00 in
06:15 47.5 °F 45.0 °F 30.16 in Calm   1.0 mph 91 % 0.00 in
06:20 47.8 °F 45.3 °F 30.16 in Calm   1.0 mph 91 % 0.00 in
06:25 48.0 °F 45.5 °F 30.17 in Calm   1.0 mph 91 % 0.00 in
06:30 48.4 °F 45.9 °F 30.17 in Calm   1.0 mph 91 % 0.00 in
06:35 48.6 °F 45.7 °F 30.17 in Calm   1.0 mph 90 % 0.00 in
06:40 48.7 °F 45.7 °F 30.17 in WNW 1.0 mph 1.0 mph 89 % 0.00 in
06:45 49.1 °F 45.7 °F 30.17 in Calm   1.0 mph 88 % 0.00 in
06:50 49.3 °F 45.9 °F 30.17 in Calm   1.0 mph 88 % 0.00 in
06:55 49.3 °F 45.5 °F 30.18 in Calm   1.0 mph 87 % 0.00 in
07:00 49.3 °F 45.3 °F 30.18 in Calm   1.0 mph 86 % 0.00 in
07:05 49.3 °F 45.5 °F 30.18 in Calm   1.0 mph 87 % 0.00 in
07:10 49.3 °F 45.5 °F 30.18 in WNW 1.0 mph 1.0 mph 87 % 0.00 in
07:15 49.1 °F 45.3 °F 30.18 in Calm   1.0 mph 87 % 0.00 in
07:20 49.1 °F 45.3 °F 30.19 in Calm   1.0 mph 87 % 0.00 in
07:25 48.9 °F 45.1 °F 30.19 in Calm   1.0 mph 87 % 0.00 in
07:30 48.9 °F 45.1 °F 30.19 in Calm     87 % 0.00 in
07:35 48.7 °F 45.0 °F 30.20 in Calm     87 % 0.00 in
07:40 48.7 °F 45.0 °F 30.20 in Calm     87 % 0.00 in
07:45 49.3 °F 45.9 °F 30.20 in Calm   1.0 mph 88 % 0.00 in
07:50 50.2 °F 46.4 °F 30.21 in Calm   1.0 mph 87 % 0.00 in
07:55 51.4 °F 47.7 °F 30.21 in Calm   1.0 mph 87 % 0.00 in
08:00 52.3 °F 48.6 °F 30.21 in Calm   1.0 mph 87 % 0.00 in
08:05 53.4 °F 49.6 °F 30.22 in Calm     87 % 0.00 in
08:10 54.9 °F 50.2 °F 30.22 in Calm     84 % 0.00 in
08:11 55.2 °F 50.7 °F 30.22 in Calm     85 % 0.00 in
08:16 55.6 °F 48.9 °F 30.22 in WNW 1.0 mph 3.0 mph 78 % 0.00 in
08:21 55.8 °F 48.0 °F 30.22 in NW 2.0 mph 3.0 mph 75 % 0.00 in
08:26 56.3 °F 48.6 °F 30.22 in NW 1.0 mph 3.0 mph 75 % 0.00 in
08:27 56.5 °F 48.7 °F 30.22 in North 2.0 mph 3.0 mph 75 % 0.00 in
08:32 57.0 °F 48.7 °F 30.22 in NW 3.0 mph 4.0 mph 74 % 0.00 in
08:37 57.6 °F 48.9 °F 30.23 in NNW 1.0 mph 4.0 mph 73 % 0.00 in
08:42 58.6 °F 49.6 °F 30.23 in NW 1.0 mph 4.0 mph 72 % 0.00 in
08:47 59.5 °F 49.3 °F 30.23 in NW 1.0 mph 4.0 mph 69 % 0.00 in
08:52 60.4 °F 49.5 °F 30.23 in WNW 1.0 mph 2.0 mph 67 % 0.00 in
08:57 61.3 °F 49.1 °F 30.24 in NNW 2.0 mph 2.0 mph 64 % 0.00 in
09:02 61.5 °F 48.7 °F 30.24 in NW 1.0 mph 2.0 mph 63 % 0.00 in
09:07 62.2 °F 48.6 °F 30.24 in Calm   2.0 mph 61 % 0.00 in
09:12 63.3 °F 50.0 °F 30.24 in Calm   2.0 mph 62 % 0.00 in
09:17 64.6 °F 48.6 °F 30.25 in Calm   2.0 mph 56 % 0.00 in
09:22 65.5 °F 49.3 °F 30.25 in NW 1.0 mph 2.0 mph 56 % 0.00 in
09:27 65.5 °F 48.9 °F 30.25 in Calm   2.0 mph 55 % 0.00 in
09:32 66.0 °F 49.5 °F 30.25 in Calm   2.0 mph 55 % 0.00 in
09:37 66.7 °F 47.5 °F 30.25 in NNW 1.0 mph 2.0 mph 50 % 0.00 in
09:42 66.7 °F 46.9 °F 30.25 in NNE 1.0 mph 3.0 mph 49 % 0.00 in
09:47 66.9 °F 46.0 °F 30.26 in NNW 3.0 mph 3.0 mph 47 % 0.00 in
09:52 67.1 °F 46.2 °F 30.26 in Calm   3.0 mph 47 % 0.00 in
09:57 67.6 °F 46.0 °F 30.25 in Calm   3.0 mph 46 % 0.00 in
10:02 68.7 °F 45.3 °F 30.26 in Calm   3.0 mph 43 % 0.00 in
10:07 69.3 °F 45.1 °F 30.26 in Calm   2.0 mph 42 % 0.00 in
10:12 69.3 °F 45.1 °F 30.26 in NW 1.0 mph 2.0 mph 42 % 0.00 in
10:17 69.8 °F 45.7 °F 30.27 in ENE 1.0 mph 2.0 mph 42 % 0.00 in
10:22 70.5 °F 46.4 °F 30.27 in NNE 1.0 mph 2.0 mph 42 % 0.00 in
10:27 70.9 °F 46.6 °F 30.27 in NW 1.0 mph 3.0 mph 42 % 0.00 in
10:32 71.4 °F 47.8 °F 30.27 in East 3.0 mph 3.0 mph 43 % 0.00 in
10:37 71.2 °F 46.4 °F 30.27 in ENE 2.0 mph 4.0 mph 41 % 0.00 in
10:42 71.2 °F 45.7 °F 30.27 in Calm   4.0 mph 40 % 0.00 in
10:43 71.2 °F 45.7 °F 30.27 in Calm   4.0 mph 40 % 0.00 in
10:48 72.1 °F 47.8 °F 30.27 in ENE 1.0 mph 4.0 mph 42 % 0.00 in
10:53 72.7 °F 43.5 °F 30.27 in East 1.0 mph 4.0 mph 35 % 0.00 in
10:58 72.7 °F 38.7 °F 30.27 in NNE 1.0 mph 3.0 mph 29 % 0.00 in
11:03 72.5 °F 35.6 °F 30.26 in NW 2.0 mph 4.0 mph 26 % 0.00 in
11:08 72.5 °F 39.4 °F 30.26 in Calm   4.0 mph 30 % 0.00 in
11:13 73.6 °F 41.9 °F 30.26 in WSW 1.0 mph 4.0 mph 32 % 0.00 in
11:18 73.9 °F 38.8 °F 30.26 in WNW 4.0 mph 4.0 mph 28 % 0.00 in
11:23 73.0 °F 37.0 °F 30.26 in NW 2.0 mph 5.0 mph 27 % 0.00 in
11:28 72.7 °F 38.7 °F 30.25 in WSW 2.0 mph 6.0 mph 29 % 0.00 in
11:33 73.2 °F 36.3 °F 30.25 in NW 3.0 mph 6.0 mph 26 % 0.00 in
11:38 72.7 °F 36.9 °F 30.25 in NNW 1.0 mph 7.0 mph 27 % 0.00 in
11:43 72.7 °F 39.4 °F 30.25 in SW 1.0 mph 7.0 mph 30 % 0.00 in
11:48 73.4 °F 40.1 °F 30.25 in NNW 3.0 mph 7.0 mph 30 % 0.00 in
11:53 73.8 °F 42.1 °F 30.25 in SE 2.0 mph 7.0 mph 32 % 0.00 in
11:58 74.5 °F 41.0 °F 30.25 in NE 3.0 mph 6.0 mph 30 % 0.00 in
12:03 74.7 °F 38.5 °F 30.25 in NW 2.0 mph 7.0 mph 27 % 0.00 in
12:08 73.9 °F 39.7 °F 30.25 in NNE 1.0 mph 7.0 mph 29 % 0.00 in
12:13 74.1 °F 40.6 °F 30.24 in NNW 2.0 mph 7.0 mph 30 % 0.00 in
12:18 74.5 °F 40.1 °F 30.24 in SSW 1.0 mph 7.0 mph 29 % 0.00 in
12:19 74.7 °F 40.3 °F 30.24 in SW 3.0 mph 7.0 mph 29 % 0.00 in
12:24 74.7 °F 38.5 °F 30.25 in NW 2.0 mph 7.0 mph 27 % 0.00 in
12:29 74.7 °F 42.1 °F 30.24 in WSW 1.0 mph 7.0 mph 31 % 0.00 in
12:34 75.0 °F 40.6 °F 30.24 in NNW 4.0 mph 6.0 mph 29 % 0.00 in
12:39 74.7 °F 42.8 °F 30.24 in SSW 1.0 mph 6.0 mph 32 % 0.00 in
12:44 75.4 °F 41.7 °F 30.24 in NNW 4.0 mph 6.0 mph 30 % 0.00 in
12:49 74.5 °F 37.4 °F 30.24 in North 2.0 mph 7.0 mph 26 % 0.00 in
12:54 74.3 °F 40.8 °F 30.23 in ESE 3.0 mph 8.0 mph 30 % 0.00 in
12:59 75.2 °F 38.8 °F 30.23 in Calm   8.0 mph 27 % 0.00 in
13:09 75.0 °F 35.8 °F 30.23 in NNW 5.0 mph 5.0 mph 24 % 0.00 in
13:14 74.7 °F 37.6 °F 30.23 in Calm   10.0 mph 26 % 0.00 in
13:19 75.2 °F 37.9 °F 30.22 in WNW 3.0 mph 10.0 mph 26 % 0.00 in
13:24 75.9 °F 40.5 °F 30.22 in NW 2.0 mph 10.0 mph 28 % 0.00 in
13:29 76.1 °F 38.7 °F 30.22 in NNW 3.0 mph 7.0 mph 26 % 0.00 in
13:34 76.1 °F 42.4 °F 30.22 in West 2.0 mph 7.0 mph 30 % 0.00 in
13:39 76.5 °F 39.9 °F 30.22 in North 3.0 mph 5.0 mph 27 % 0.00 in
13:44 76.8 °F 38.3 °F 30.22 in WNW 2.0 mph 6.0 mph 25 % 0.00 in
13:48 77.0 °F 44.1 °F 30.22 in NNE 1.0 mph 6.0 mph 31 % 0.00 in
13:51 76.6 °F 39.2 °F 30.22 in North 6.0 mph 9.0 mph 26 % 0.00 in
13:56 75.9 °F 37.6 °F 30.22 in North 6.0 mph 9.0 mph 25 % 0.00 in
14:01 75.9 °F 38.7 °F 30.21 in SE 2.0 mph 9.0 mph 26 % 0.00 in
14:06 76.6 °F 42.1 °F 30.21 in Calm   9.0 mph 29 % 0.00 in
14:11 77.4 °F 39.7 °F 30.21 in West 3.0 mph 7.0 mph 26 % 0.00 in
14:16 76.8 °F 39.4 °F 30.21 in West 1.0 mph 9.0 mph 26 % 0.00 in
14:21 76.6 °F 38.1 °F 30.21 in NNW 4.0 mph 9.0 mph 25 % 0.00 in
14:26 76.5 °F 37.9 °F 30.21 in NNW 4.0 mph 9.0 mph 25 % 0.00 in
14:31 76.5 °F 37.9 °F 30.21 in SE 1.0 mph 7.0 mph 25 % 0.00 in
14:36 76.8 °F 35.1 °F 30.20 in NNE 2.0 mph 7.0 mph 22 % 0.00 in
14:41 76.5 °F 37.9 °F 30.20 in ENE 2.0 mph 7.0 mph 25 % 0.00 in
14:46 76.6 °F 41.2 °F 30.20 in West 1.0 mph 7.0 mph 28 % 0.00 in
14:51 77.7 °F 40.1 °F 30.19 in NNW 3.0 mph 7.0 mph 26 % 0.00 in
14:56 77.7 °F 40.1 °F 30.19 in NNW 1.0 mph 5.0 mph 26 % 0.00 in
15:01 77.7 °F 40.1 °F 30.19 in West 5.0 mph 7.0 mph 26 % 0.00 in
15:11 77.0 °F 38.5 °F 30.19 in SW 1.0 mph 10.0 mph 25 % 0.00 in
15:16 77.4 °F 38.8 °F 30.19 in West 2.0 mph 10.0 mph 25 % 0.00 in
15:21 77.2 °F 38.7 °F 30.18 in Calm   8.0 mph 25 % 0.00 in
15:26 77.4 °F 40.8 °F 30.18 in East 2.0 mph 8.0 mph 27 % 0.00 in
15:31 77.5 °F 41.0 °F 30.17 in NNW 2.0 mph 7.0 mph 27 % 0.00 in
15:36 77.7 °F 38.1 °F 30.17 in NW 6.0 mph 7.0 mph 24 % 0.00 in
15:41 77.4 °F 39.7 °F 30.17 in NW 2.0 mph 7.0 mph 26 % 0.00 in
15:46 77.7 °F 38.1 °F 30.17 in WNW 10.0 mph 10.0 mph 24 % 0.00 in
15:51 77.4 °F 41.7 °F 30.17 in NW 4.0 mph 10.0 mph 28 % 0.00 in
15:56 77.7 °F 40.1 °F 30.17 in NE 2.0 mph 10.0 mph 26 % 0.00 in
16:01 77.9 °F 41.2 °F 30.16 in WNW 1.0 mph 10.0 mph 27 % 0.00 in
16:06 78.1 °F 40.5 °F 30.17 in WNW 3.0 mph 6.0 mph 26 % 0.00 in
16:11 77.9 °F 41.2 °F 30.17 in Calm   5.0 mph 27 % 0.00 in
16:16 77.9 °F 39.2 °F 30.16 in NW 2.0 mph 5.0 mph 25 % 0.00 in
16:21 77.5 °F 36.9 °F 30.16 in NNW 2.0 mph 6.0 mph 23 % 0.00 in
16:26 77.7 °F 39.0 °F 30.15 in ENE 3.0 mph 6.0 mph 25 % 0.00 in
16:31 77.9 °F 39.2 °F 30.16 in South 1.0 mph 6.0 mph 25 % 0.00 in
16:36 78.1 °F 38.3 °F 30.15 in WNW 5.0 mph 8.0 mph 24 % 0.00 in
16:41 77.9 °F 37.0 °F 30.15 in NW 4.0 mph 8.0 mph 23 % 0.00 in
16:47 77.9 °F 39.2 °F 30.15 in North 9.0 mph 9.0 mph 25 % 0.00 in
16:52 77.9 °F 38.1 °F 30.15 in WNW 3.0 mph 9.0 mph 24 % 0.00 in
17:02 77.5 °F 39.0 °F 30.15 in NNW 5.0 mph 9.0 mph 25 % 0.00 in
17:07 77.5 °F 39.0 °F 30.15 in NNW 2.0 mph 7.0 mph 25 % 0.00 in
17:12 77.4 °F 35.6 °F 30.15 in Calm   7.0 mph 22 % 0.00 in
17:17 77.4 °F 36.7 °F 30.15 in Calm   7.0 mph 23 % 0.00 in
17:22 77.7 °F 39.0 °F 30.14 in Calm   5.0 mph 25 % 0.00 in
17:27 78.3 °F 38.5 °F 30.14 in Calm   5.0 mph 24 % 0.00 in
17:32 78.6 °F 38.8 °F 30.14 in NW 1.0 mph 4.0 mph 24 % 0.00 in
17:37 77.9 °F 37.0 °F 30.14 in NNW 2.0 mph 6.0 mph 23 % 0.00 in
17:42 78.1 °F 38.3 °F 30.14 in WNW 1.0 mph 6.0 mph 24 % 0.00 in
17:47 78.1 °F 39.4 °F 30.14 in NW 5.0 mph 6.0 mph 25 % 0.00 in
17:52 77.4 °F 36.7 °F 30.14 in NNW 1.0 mph 6.0 mph 23 % 0.00 in
17:57 77.4 °F 37.8 °F 30.14 in NW 3.0 mph 6.0 mph 24 % 0.00 in
18:02 76.8 °F 36.1 °F 30.13 in NNW 4.0 mph 7.0 mph 23 % 0.00 in
18:07 76.6 °F 38.1 °F 30.14 in NW 5.0 mph 7.0 mph 25 % 0.00 in
18:12 76.5 °F 37.0 °F 30.14 in NW 4.0 mph 7.0 mph 24 % 0.00 in
18:16 75.7 °F 36.3 °F 30.13 in NW 3.0 mph 7.0 mph 24 % 0.00 in
18:21 75.6 °F 35.2 °F 30.14 in NE 1.0 mph 7.0 mph 23 % 0.00 in
18:26 75.6 °F 35.2 °F 30.14 in NW 2.0 mph 7.0 mph 23 % 0.00 in
18:31 75.6 °F 36.3 °F 30.14 in NW 1.0 mph 6.0 mph 24 % 0.00 in
18:36 75.4 °F 37.0 °F 30.14 in NW 3.0 mph 6.0 mph 25 % 0.00 in
18:42 75.0 °F 36.9 °F 30.14 in WNW 1.0 mph 5.0 mph 25 % 0.00 in
18:52 74.8 °F 35.6 °F 30.14 in NW 1.0 mph 5.0 mph 24 % 0.00 in
18:57 75.0 °F 35.8 °F 30.14 in NW 1.0 mph 5.0 mph 24 % 0.00 in
19:02 75.6 °F 37.2 °F 30.14 in NW 1.0 mph 5.0 mph 25 % 0.00 in
19:07 75.7 °F 37.4 °F 30.14 in Calm   4.0 mph 25 % 0.00 in
19:12 75.2 °F 38.8 °F 30.14 in NW 1.0 mph 4.0 mph 27 % 0.00 in
19:17 74.7 °F 38.5 °F 30.14 in NW 1.0 mph 5.0 mph 27 % 0.00 in
19:22 74.1 °F 37.9 °F 30.15 in NW 1.0 mph 5.0 mph 27 % 0.00 in
19:27 73.8 °F 38.7 °F 30.14 in Calm   5.0 mph 28 % 0.00 in
19:32 73.2 °F 39.0 °F 30.14 in NW 1.0 mph 3.0 mph 29 % 0.00 in
19:37 72.7 °F 38.7 °F 30.15 in Calm   3.0 mph 29 % 0.00 in
19:42 72.0 °F 38.8 °F 30.15 in Calm   2.0 mph 30 % 0.00 in
19:47 71.2 °F 39.0 °F 30.15 in Calm   1.0 mph 31 % 0.00 in
19:52 70.5 °F 39.2 °F 30.15 in Calm     32 % 0.00 in
19:57 69.8 °F 40.1 °F 30.15 in Calm     34 % 0.00 in
20:02 69.3 °F 39.7 °F 30.15 in Calm     34 % 0.00 in
20:07 68.7 °F 40.6 °F 30.15 in Calm     36 % 0.00 in
20:12 68.2 °F 40.3 °F 30.15 in Calm     36 % 0.00 in
20:17 67.5 °F 41.0 °F 30.15 in Calm     38 % 0.00 in
20:22 66.9 °F 41.2 °F 30.15 in Calm     39 % 0.00 in
20:27 66.6 °F 41.5 °F 30.15 in Calm     40 % 0.00 in
20:32 65.8 °F 41.5 °F 30.15 in Calm     41 % 0.00 in
20:37 65.5 °F 42.4 °F 30.15 in Calm     43 % 0.00 in
20:42 64.9 °F 42.4 °F 30.15 in Calm     44 % 0.00 in
20:47 64.6 °F 43.3 °F 30.15 in Calm     46 % 0.00 in
20:52 64.0 °F 43.3 °F 30.15 in Calm     47 % 0.00 in
20:57 63.9 °F 43.2 °F 30.15 in Calm     47 % 0.00 in
21:02 63.7 °F 43.7 °F 30.15 in Calm     48 % 0.00 in
21:07 63.5 °F 44.1 °F 30.15 in Calm     49 % 0.00 in
21:12 63.1 °F 43.7 °F 30.15 in Calm     49 % 0.00 in
21:17 63.0 °F 44.1 °F 30.16 in Calm     50 % 0.00 in
21:27 62.4 °F 44.1 °F 30.16 in Calm     51 % 0.00 in
21:32 62.2 °F 43.9 °F 30.16 in Calm     51 % 0.00 in
21:37 61.7 °F 43.3 °F 30.16 in Calm     51 % 0.00 in
21:42 61.2 °F 43.0 °F 30.16 in Calm     51 % 0.00 in
21:47 60.6 °F 43.3 °F 30.16 in Calm     53 % 0.00 in
21:52 61.0 °F 44.8 °F 30.16 in Calm     55 % 0.00 in
21:57 61.0 °F 44.8 °F 30.16 in Calm     55 % 0.00 in
22:02 60.6 °F 44.4 °F 30.17 in Calm     55 % 0.00 in
22:07 60.1 °F 44.4 °F 30.17 in Calm     56 % 0.00 in
22:12 59.7 °F 45.0 °F 30.17 in Calm     58 % 0.00 in
22:17 59.7 °F 45.9 °F 30.17 in Calm     60 % 0.00 in
22:22 60.1 °F 46.2 °F 30.18 in Calm     60 % 0.00 in
22:27 60.1 °F 46.2 °F 30.18 in Calm     60 % 0.00 in
22:32 59.9 °F 45.5 °F 30.18 in Calm     59 % 0.00 in
22:37 59.4 °F 45.5 °F 30.18 in Calm     60 % 0.00 in
22:42 59.0 °F 45.5 °F 30.18 in Calm     61 % 0.00 in
22:47 58.8 °F 45.3 °F 30.18 in Calm     61 % 0.00 in
22:52 58.5 °F 45.9 °F 30.18 in Calm     63 % 0.00 in
22:57 58.6 °F 46.6 °F 30.19 in Calm     64 % 0.00 in
23:02 58.5 °F 46.4 °F 30.19 in Calm     64 % 0.00 in
23:12 57.7 °F 45.7 °F 30.19 in Calm     64 % 0.00 in
23:17 57.6 °F 46.8 °F 30.19 in Calm     67 % 0.00 in
23:22 57.9 °F 47.5 °F 30.19 in Calm     68 % 0.00 in
23:27 58.3 °F 47.3 °F 30.19 in Calm     67 % 0.00 in
23:32 58.3 °F 46.9 °F 30.19 in Calm     66 % 0.00 in
23:37 57.7 °F 46.4 °F 30.19 in Calm     66 % 0.00 in
23:42 57.0 °F 46.6 °F 30.19 in Calm     68 % 0.00 in
23:47 56.8 °F 46.8 °F 30.20 in Calm     69 % 0.00 in
23:52 56.8 °F 47.5 °F 30.20 in Calm     71 % 0.00 in
23:57 56.8 °F 47.5 °F 30.20 in South 3.0 mph   71 % 0.00 in
Spring, Texas: Villages of Bridgestone
Compliments of Weather Underground - 2.75 mb

Script developed by  Jim McMurry - jmcmurry@mwt.net Adapted for the template by  Wim van der Kuil - Leuven-Template.eu

You find our weather info also at:

UK Metoffice

WeatherCloud

Weather Underground

Mid-South Weather Network

AWEKAS

Citizen Weather Observer Program (CWOP)

HAMweather, WeatherForYou, PWS Weather

Equipment we use:

Weather-station
Davis Vantage Vue

Weather-program
Meteohub

Weather-server
Debian 7.9 x86 (Guest)

Provider
DreamHost

Davis Vantage Vue

Meteohub

Debian 7.9 x86 (Guest)

DreamHost